createdAt,value
2022-09-16T00:00:51.846Z,100955.56
2022-09-16T00:03:18.694Z,100948.72
2022-09-16T00:05:48.636Z,100955.16
2022-09-16T00:08:16.765Z,100959.16
2022-09-16T00:10:44.043Z,100952.16
2022-09-16T00:13:12.116Z,100960.59
2022-09-16T00:15:43.842Z,100964.47
2022-09-16T00:18:12.141Z,100959.34
2022-09-16T00:20:46.925Z,100960.34
2022-09-16T00:23:13.504Z,100955.09
2022-09-16T00:25:41.065Z,100957.94
2022-09-16T00:28:07.685Z,100950.09
2022-09-16T00:30:34.227Z,100951.81
2022-09-16T00:33:00.709Z,100947.25
2022-09-16T00:35:28.796Z,100930.78
2022-09-16T00:37:55.364Z,100934.22
2022-09-16T00:40:22.901Z,100932.19
2022-09-16T00:42:49.488Z,100948.03
2022-09-16T00:45:22.464Z,100947.88
2022-09-16T00:47:53.757Z,100947.72
2022-09-16T00:50:28.942Z,100946.88
2022-09-16T00:52:56.978Z,100950.44
2022-09-16T00:55:30.682Z,100947.59
2022-09-16T00:58:04.263Z,100947.44
2022-09-16T01:00:31.394Z,100945.72
2022-09-16T01:02:58.120Z,100941.13
2022-09-16T01:05:26.673Z,100938.28
2022-09-16T01:07:55.029Z,100939.97
2022-09-16T01:10:24.672Z,100937.16
2022-09-16T01:12:55.992Z,100934.13
2022-09-16T01:15:36.959Z,100935.84
2022-09-16T01:18:03.425Z,100932.09
2022-09-16T01:21:02.223Z,100934.13
2022-09-16T01:24:05.841Z,100938.56
2022-09-16T01:26:51.099Z,100939.41
2022-09-16T01:29:39.515Z,100933.44
2022-09-16T01:32:12.609Z,100935.13
2022-09-16T01:35:02.840Z,100929.84
2022-09-16T01:37:42.984Z,100941.41
2022-09-16T01:40:20.382Z,100942.28
2022-09-16T01:43:04.142Z,100945.00
2022-09-16T01:45:39.301Z,100937.00
2022-09-16T01:48:30.695Z,100939.72
2022-09-16T01:51:12.981Z,100943.44
2022-09-16T01:53:51.644Z,100939.13
2022-09-16T01:56:29.863Z,100933.31
2022-09-16T01:59:03.369Z,100930.88
2022-09-16T02:01:46.025Z,100931.19
2022-09-16T02:04:42.768Z,100937.78
2022-09-16T02:07:12.862Z,100943.50
2022-09-16T02:09:44.314Z,100941.97
2022-09-16T02:12:16.914Z,100942.09
2022-09-16T02:14:46.675Z,100946.69
2022-09-16T02:17:17.203Z,100945.69
2022-09-16T02:19:52.309Z,100952.81
2022-09-16T02:22:28.054Z,100958.09
2022-09-16T02:24:54.810Z,100960.81
2022-09-16T02:27:22.958Z,100950.09
2022-09-16T02:29:54.362Z,100943.25
2022-09-16T02:32:23.813Z,100948.00
2022-09-16T02:34:54.730Z,100954.28
2022-09-16T02:37:31.714Z,100947.00
2022-09-16T02:40:02.218Z,100943.25
2022-09-16T02:42:30.140Z,100936.84
2022-09-16T02:45:00.135Z,100938.25
2022-09-16T02:47:37.358Z,100924.34
2022-09-16T02:50:46.313Z,100932.50
2022-09-16T02:53:58.741Z,100928.78
2022-09-16T02:56:32.055Z,100931.50
2022-09-16T02:58:58.994Z,100936.06
2022-09-16T03:01:27.081Z,100930.78
2022-09-16T03:03:56.558Z,100917.53
2022-09-16T03:06:25.262Z,100923.25
2022-09-16T03:08:54.559Z,100927.97
2022-09-16T03:11:28.027Z,100921.16
2022-09-16T03:14:23.787Z,100927.03
2022-09-16T03:16:59.787Z,100928.47
2022-09-16T03:19:46.193Z,100928.06
2022-09-16T03:22:32.790Z,100934.97
2022-09-16T03:25:10.942Z,100914.56
2022-09-16T03:27:55.865Z,100920.41
2022-09-16T03:30:22.373Z,100918.69
2022-09-16T03:32:59.622Z,100919.69
2022-09-16T03:35:26.568Z,100919.28
2022-09-16T03:37:56.839Z,100925.16
2022-09-16T03:40:24.002Z,100926.44
2022-09-16T03:42:50.718Z,100923.47
2022-09-16T03:45:20.595Z,100928.50
2022-09-16T03:47:49.516Z,100927.78
2022-09-16T03:50:18.309Z,100929.63
2022-09-16T03:52:44.833Z,100919.09
2022-09-16T03:55:11.817Z,100920.94
2022-09-16T03:57:38.674Z,100923.66
2022-09-16T04:00:07.557Z,100921.94
2022-09-16T04:02:40.080Z,100921.78
2022-09-16T04:05:08.141Z,100913.97
2022-09-16T04:07:35.477Z,100914.09
2022-09-16T04:10:02.104Z,100914.09
2022-09-16T04:12:29.302Z,100916.97
2022-09-16T04:14:56.923Z,100913.81
2022-09-16T04:17:24.028Z,100920.66
2022-09-16T04:19:51.445Z,100911.81
2022-09-16T04:22:17.900Z,100911.13
2022-09-16T04:24:47.534Z,100921.81
2022-09-16T04:27:14.114Z,100914.38
2022-09-16T04:29:40.577Z,100924.94
2022-09-16T04:32:07.042Z,100922.09
2022-09-16T04:34:33.590Z,100921.09
2022-09-16T04:37:00.091Z,100924.66
2022-09-16T04:39:26.523Z,100931.94
2022-09-16T04:41:52.961Z,100921.09
2022-09-16T04:44:19.468Z,100925.09
2022-09-16T04:46:45.893Z,100921.53
2022-09-16T04:49:15.200Z,100927.78
2022-09-16T04:51:41.757Z,100931.50
2022-09-16T04:54:09.694Z,100925.09
2022-09-16T04:56:36.145Z,100934.94
2022-09-16T04:59:05.598Z,100935.22
2022-09-16T05:01:35.378Z,100932.81
2022-09-16T05:04:05.379Z,100933.09
2022-09-16T05:06:35.114Z,100931.53
2022-09-16T05:09:02.691Z,100926.25
2022-09-16T05:11:34.917Z,100914.69
2022-09-16T05:14:06.947Z,100908.41
2022-09-16T05:16:34.363Z,100905.56
2022-09-16T05:19:04.597Z,100905.28
2022-09-16T05:21:36.270Z,100916.53
2022-09-16T05:24:08.595Z,100913.69
2022-09-16T05:26:37.373Z,100915.53
2022-09-16T05:29:06.994Z,100918.09
2022-09-16T05:31:36.287Z,100919.66
2022-09-16T05:34:21.582Z,100922.94
2022-09-16T05:36:49.420Z,100916.25
2022-09-16T05:39:25.936Z,100918.53
2022-09-16T05:41:58.711Z,100915.66
2022-09-16T05:44:29.368Z,100920.09
2022-09-16T05:46:56.214Z,100923.50
2022-09-16T05:49:23.668Z,100923.50
2022-09-16T05:51:50.497Z,100925.94
2022-09-16T05:54:19.423Z,100934.91
2022-09-16T05:56:46.673Z,100936.63
2022-09-16T05:59:14.506Z,100936.63
2022-09-16T06:01:41.615Z,100934.78
2022-09-16T06:04:12.479Z,100935.91
2022-09-16T06:06:41.455Z,100943.19
2022-09-16T06:09:14.949Z,100949.47
2022-09-16T06:11:47.082Z,100951.34
2022-09-16T06:14:15.749Z,100951.50
2022-09-16T06:16:43.486Z,100949.63
2022-09-16T06:19:17.724Z,100958.78
2022-09-16T06:21:45.333Z,100948.78
2022-09-16T06:24:13.518Z,100946.06
2022-09-16T06:26:41.925Z,100946.91
2022-09-16T06:29:09.756Z,100944.22
2022-09-16T06:31:37.859Z,100946.63
2022-09-16T06:34:14.049Z,100951.19
2022-09-16T06:36:44.635Z,100950.19
2022-09-16T06:39:13.229Z,100959.19
2022-09-16T06:41:39.793Z,100956.47
2022-09-16T06:44:07.671Z,100959.88
2022-09-16T06:46:34.119Z,100957.03
2022-09-16T06:49:05.334Z,100962.31
2022-09-16T06:51:33.945Z,100964.03
2022-09-16T06:54:05.419Z,100966.88
2022-09-16T06:56:34.056Z,100966.16
2022-09-16T06:59:00.512Z,100964.59
2022-09-16T07:01:29.595Z,100968.31
2022-09-16T07:03:58.279Z,100968.31
2022-09-16T07:06:45.171Z,100975.47
2022-09-16T07:09:14.700Z,100969.75
2022-09-16T07:11:41.234Z,100972.31
2022-09-16T07:14:12.984Z,100974.88
2022-09-16T07:16:39.644Z,100976.44
2022-09-16T07:19:06.234Z,100976.28
2022-09-16T07:21:32.952Z,100967.72
2022-09-16T07:24:03.598Z,100972.97
2022-09-16T07:26:32.880Z,100981.09
2022-09-16T07:29:01.990Z,100973.31
2022-09-16T07:31:31.155Z,100961.81
2022-09-16T07:34:04.356Z,100966.59
2022-09-16T07:36:40.079Z,100964.25
2022-09-16T07:39:07.295Z,100968.19
2022-09-16T07:41:37.297Z,100964.94
2022-09-16T07:44:11.592Z,100964.78
2022-09-16T07:46:38.407Z,100960.34
2022-09-16T07:49:07.281Z,100966.06
2022-09-16T07:51:34.640Z,100965.09
2022-09-16T07:54:06.457Z,100967.75
2022-09-16T07:56:35.740Z,100964.44
2022-09-16T07:59:04.402Z,100975.75
2022-09-16T08:01:31.290Z,100981.06
2022-09-16T08:04:02.752Z,100982.00
2022-09-16T08:06:31.268Z,100977.44
2022-09-16T08:09:09.777Z,100980.94
2022-09-16T08:11:42.016Z,100982.81
2022-09-16T08:14:10.658Z,100978.09
2022-09-16T08:16:37.156Z,100979.66
2022-09-16T08:19:03.785Z,100985.81
2022-09-16T08:21:31.035Z,100991.28
2022-09-16T08:23:59.438Z,100991.84
2022-09-16T08:26:26.734Z,100989.63
2022-09-16T08:29:10.189Z,100990.84
2022-09-16T08:31:37.856Z,100995.44
2022-09-16T08:34:08.412Z,100997.16
2022-09-16T08:36:34.884Z,100999.25
2022-09-16T08:39:01.564Z,100987.50
2022-09-16T08:41:46.567Z,100989.72
2022-09-16T08:44:28.889Z,101001.13
2022-09-16T08:47:13.272Z,101000.97
2022-09-16T08:49:46.275Z,100987.16
2022-09-16T08:52:22.419Z,100979.31
2022-09-16T08:54:57.194Z,100994.47
2022-09-16T08:57:27.718Z,100995.69
2022-09-16T08:59:58.029Z,100988.34
2022-09-16T09:02:31.860Z,100987.50
2022-09-16T09:04:59.410Z,100987.31
2022-09-16T09:07:34.640Z,100993.81
2022-09-16T09:10:10.111Z,100997.03
2022-09-16T09:12:43.442Z,100990.91
2022-09-16T09:15:36.274Z,101001.97
2022-09-16T09:18:36.163Z,100998.56
2022-09-16T09:21:11.444Z,100997.91
2022-09-16T09:23:39.204Z,100997.03
2022-09-16T09:26:22.381Z,100994.81
2022-09-16T09:29:19.903Z,100994.31
2022-09-16T09:32:07.757Z,100992.09
2022-09-16T09:35:08.227Z,100992.09
2022-09-16T09:37:58.451Z,100981.69
2022-09-16T09:40:28.029Z,100978.44
2022-09-16T09:43:33.067Z,100984.25
2022-09-16T09:46:13.481Z,100976.22
2022-09-16T09:48:46.942Z,100985.78
2022-09-16T09:51:37.174Z,100987.66
2022-09-16T09:54:27.887Z,101016.34
2022-09-16T09:57:00.865Z,101035.59
2022-09-16T09:59:45.497Z,101004.66
2022-09-16T10:02:19.752Z,101013.06
2022-09-16T10:04:50.755Z,101027.31
2022-09-16T10:07:20.963Z,101027.06
2022-09-16T10:09:57.960Z,101021.84
2022-09-16T10:12:33.182Z,101017.13
2022-09-16T10:15:04.263Z,101017.88
2022-09-16T10:17:32.462Z,101012.31
2022-09-16T10:20:47.601Z,101016.41
2022-09-16T10:23:20.406Z,101019.06
2022-09-16T10:25:47.962Z,101015.03
2022-09-16T10:28:25.465Z,101023.44
2022-09-16T10:30:58.125Z,101026.91
2022-09-16T10:33:36.094Z,101024.81
2022-09-16T10:36:07.319Z,101010.53
2022-09-16T10:38:41.827Z,101017.28
2022-09-16T10:41:16.028Z,101016.13
2022-09-16T10:43:49.354Z,101012.94
2022-09-16T10:46:18.630Z,101013.16
2022-09-16T10:48:46.384Z,101003.06
2022-09-16T10:51:27.873Z,101008.97
2022-09-16T10:54:00.861Z,101002.41
2022-09-16T10:56:33.664Z,101003.78
2022-09-16T10:59:13.230Z,101001.00
2022-09-16T11:02:04.541Z,100999.56
2022-09-16T11:04:46.473Z,100999.53
2022-09-16T11:07:21.761Z,100997.59
2022-09-16T11:09:54.265Z,100994.94
2022-09-16T11:12:30.039Z,100992.47
2022-09-16T11:15:12.781Z,100996.97
2022-09-16T11:18:04.806Z,100992.03
2022-09-16T11:20:55.500Z,100999.94
2022-09-16T11:24:06.782Z,101001.97
2022-09-16T11:27:02.841Z,100998.91
2022-09-16T11:29:48.045Z,101002.19
2022-09-16T11:32:26.698Z,101002.50
2022-09-16T11:35:44.351Z,101005.56
2022-09-16T11:38:50.129Z,101002.31
2022-09-16T11:41:35.174Z,101010.97
2022-09-16T11:44:20.511Z,101011.28
2022-09-16T11:47:05.698Z,101000.53
2022-09-16T11:49:52.845Z,101004.56
2022-09-16T11:52:19.454Z,101015.28
2022-09-16T11:55:14.621Z,101044.56
2022-09-16T11:57:46.574Z,101056.91
2022-09-16T12:00:20.494Z,101047.38
2022-09-16T12:02:53.251Z,101053.84
2022-09-16T12:05:35.037Z,101047.00
2022-09-16T12:08:10.534Z,101055.59
2022-09-16T12:10:41.656Z,101044.75
2022-09-16T12:13:15.360Z,101043.78
2022-09-16T12:15:44.621Z,101037.16
2022-09-16T12:18:21.332Z,101035.81
2022-09-16T12:21:08.119Z,101025.81
2022-09-16T12:23:42.572Z,101030.66
2022-09-16T12:26:19.980Z,101029.59
2022-09-16T12:29:05.362Z,101029.38
2022-09-16T12:31:46.541Z,101030.84
2022-09-16T12:34:31.380Z,101026.97
2022-09-16T12:37:09.746Z,101025.09
2022-09-16T12:39:36.197Z,101029.06
2022-09-16T12:42:02.589Z,101024.53
2022-09-16T12:45:11.111Z,101019.38
2022-09-16T12:48:08.481Z,101021.72
2022-09-16T12:50:37.971Z,101022.19
2022-09-16T12:53:35.993Z,101020.44
2022-09-16T12:56:22.630Z,101017.44
2022-09-16T12:58:49.003Z,101024.63
2022-09-16T13:01:19.966Z,101020.91
2022-09-16T13:03:56.548Z,101007.81
2022-09-16T13:06:27.221Z,101002.56
2022-09-16T13:08:55.011Z,101004.97
2022-09-16T13:12:16.583Z,101006.00
2022-09-16T13:14:23.546Z,100999.34
2022-09-16T13:16:56.235Z,101005.25
2022-09-16T13:19:28.645Z,101003.88
2022-09-16T13:21:59.334Z,101007.28
2022-09-16T13:24:42.118Z,101005.69
2022-09-16T13:27:36.878Z,101009.28
2022-09-16T13:30:14.260Z,101015.78
2022-09-16T13:32:53.034Z,101011.69
2022-09-16T13:35:32.451Z,101008.84
2022-09-16T13:38:00.511Z,101003.59
2022-09-16T13:40:29.785Z,101012.13
2022-09-16T13:43:08.341Z,101008.56
2022-09-16T13:45:43.504Z,101012.81
2022-09-16T13:48:18.463Z,101014.53
2022-09-16T13:50:54.514Z,101012.66
2022-09-16T13:53:34.181Z,101017.94
2022-09-16T13:56:10.785Z,101016.94
2022-09-16T13:58:44.834Z,101015.91
2022-09-16T14:01:27.914Z,101011.34
2022-09-16T14:04:28.168Z,101013.75
2022-09-16T14:06:54.543Z,101008.47
2022-09-16T14:09:27.633Z,101012.75
2022-09-16T14:12:19.074Z,101054.22
2022-09-16T14:14:48.240Z,101073.28
2022-09-16T14:17:28.453Z,101064.91
2022-09-16T14:20:00.322Z,101052.09
2022-09-16T14:22:27.984Z,101024.06
2022-09-16T14:25:05.962Z,101029.75
2022-09-16T14:27:40.004Z,101029.72
2022-09-16T14:30:14.931Z,101028.34
2022-09-16T14:32:41.706Z,101018.47
2022-09-16T14:35:21.420Z,101021.19
2022-09-16T14:37:52.162Z,101018.63
2022-09-16T14:40:22.869Z,101013.19
2022-09-16T14:42:54.061Z,101008.78
2022-09-16T14:45:21.324Z,101012.56
2022-09-16T14:47:52.692Z,101000.47
2022-09-16T14:50:25.099Z,101004.72
2022-09-16T14:52:59.307Z,101006.97
2022-09-16T14:55:29.904Z,101008.38
2022-09-16T14:57:57.694Z,101009.91
2022-09-16T15:00:29.997Z,100993.53
2022-09-16T15:03:05.961Z,101000.72
2022-09-16T15:05:35.136Z,100993.72
2022-09-16T15:08:26.013Z,100989.59
2022-09-16T15:10:56.094Z,100988.91
2022-09-16T15:13:43.250Z,100987.34
2022-09-16T15:16:21.971Z,100993.81
2022-09-16T15:18:56.080Z,100996.19
2022-09-16T15:21:30.330Z,101000.94
2022-09-16T15:24:01.186Z,100996.16
2022-09-16T15:26:41.121Z,100999.38
2022-09-16T15:29:26.583Z,101007.88
2022-09-16T15:31:53.528Z,101011.94
2022-09-16T15:34:22.681Z,101001.22
2022-09-16T15:36:57.306Z,100999.50
2022-09-16T15:39:28.377Z,100997.78
2022-09-16T15:42:16.194Z,100995.41
2022-09-16T15:45:12.315Z,100998.06
2022-09-16T15:47:53.513Z,100996.50
2022-09-16T15:50:21.594Z,100986.63
2022-09-16T15:52:47.976Z,100987.81
2022-09-16T15:55:28.488Z,100983.72
2022-09-16T15:58:02.158Z,100978.09
2022-09-16T16:00:28.994Z,100977.06
2022-09-16T16:03:00.353Z,100983.38
2022-09-16T16:05:30.056Z,100989.53
2022-09-16T16:08:05.102Z,100986.78
2022-09-16T16:10:36.252Z,100990.38
2022-09-16T16:13:04.556Z,100983.38
2022-09-16T16:15:36.810Z,100981.84
2022-09-16T16:18:07.344Z,100981.31
2022-09-16T16:20:36.146Z,100992.38
2022-09-16T16:23:02.814Z,100989.13
2022-09-16T16:25:30.129Z,100998.91
2022-09-16T16:27:56.578Z,101000.72
2022-09-16T16:30:23.052Z,101006.28
2022-09-16T16:32:49.578Z,101005.00
2022-09-16T16:35:16.214Z,101003.41
2022-09-16T16:37:47.178Z,100999.75
2022-09-16T16:40:15.289Z,101008.56
2022-09-16T16:42:43.593Z,101007.72
2022-09-16T16:45:13.280Z,101009.50
2022-09-16T16:47:40.089Z,101013.72
2022-09-16T16:50:06.838Z,101015.19
2022-09-16T16:52:33.376Z,101016.50
2022-09-16T16:55:04.632Z,101012.25
2022-09-16T16:57:31.622Z,101020.56
2022-09-16T16:59:58.033Z,101022.72
2022-09-16T17:02:24.645Z,101027.47
2022-09-16T17:04:51.137Z,101048.50
2022-09-16T17:07:26.561Z,101048.50
2022-09-16T17:09:54.401Z,101045.78
2022-09-16T17:12:20.867Z,101043.63
2022-09-16T17:14:47.663Z,101044.88
2022-09-16T17:17:14.097Z,101043.56
2022-09-16T17:19:40.738Z,101049.38
2022-09-16T17:22:07.177Z,101048.91
2022-09-16T17:24:35.062Z,101046.19
2022-09-16T17:27:01.981Z,101046.19
2022-09-16T17:29:28.669Z,101047.66
2022-09-16T17:31:57.225Z,101052.00
2022-09-16T17:34:28.268Z,101048.34
2022-09-16T17:36:54.789Z,101054.56
2022-09-16T17:39:22.685Z,101056.19
2022-09-16T17:41:49.914Z,101060.38
2022-09-16T17:44:20.714Z,101059.97
2022-09-16T17:46:47.410Z,101065.00
2022-09-16T17:49:20.071Z,101058.59
2022-09-16T17:51:47.482Z,101063.19
2022-09-16T17:54:14.198Z,101063.22
2022-09-16T17:56:42.785Z,101078.38
2022-09-16T17:59:10.837Z,101082.84
2022-09-16T18:01:37.417Z,101086.88
2022-09-16T18:04:07.736Z,101063.31
2022-09-16T18:06:43.438Z,101065.22
2022-09-16T18:09:10.723Z,101073.38
2022-09-16T18:11:39.351Z,101084.81
2022-09-16T18:14:12.168Z,101092.22
2022-09-16T18:16:39.913Z,101081.78
2022-09-16T18:19:07.141Z,101075.09
2022-09-16T18:21:34.172Z,101073.81
2022-09-16T18:24:05.660Z,101077.09
2022-09-16T18:26:32.718Z,101075.66
2022-09-16T18:29:10.854Z,101080.38
2022-09-16T18:31:44.498Z,101088.81
2022-09-16T18:34:14.198Z,101091.66
2022-09-16T18:36:41.144Z,101086.38
2022-09-16T18:39:13.282Z,101094.81
2022-09-16T18:41:41.118Z,101091.53
2022-09-16T18:44:17.041Z,101092.91
2022-09-16T18:46:44.005Z,101097.03
2022-09-16T18:49:12.945Z,101101.03
2022-09-16T18:51:42.030Z,101094.19
2022-09-16T18:54:14.412Z,101090.91
2022-09-16T18:56:41.466Z,101093.91
2022-09-16T18:59:22.043Z,101098.59
2022-09-16T19:01:50.838Z,101091.59
2022-09-16T19:04:23.765Z,101108.00
2022-09-16T19:06:52.624Z,101103.56
2022-09-16T19:09:21.906Z,101109.97
2022-09-16T19:11:49.379Z,101111.97
2022-09-16T19:14:20.928Z,101113.09
2022-09-16T19:16:47.398Z,101114.09
2022-09-16T19:19:15.050Z,101114.38
2022-09-16T19:21:42.989Z,101114.66
2022-09-16T19:24:19.242Z,101112.22
2022-09-16T19:26:46.828Z,101107.06
2022-09-16T19:29:15.036Z,101111.78
2022-09-16T19:31:43.784Z,101113.78
2022-09-16T19:34:10.966Z,101114.75
2022-09-16T19:36:38.554Z,101114.19
2022-09-16T19:39:06.242Z,101103.63
2022-09-16T19:41:34.418Z,101104.91
2022-09-16T19:44:06.398Z,101097.19
2022-09-16T19:46:35.417Z,101100.31
2022-09-16T19:49:02.757Z,101094.31
2022-09-16T19:51:29.376Z,101103.56
2022-09-16T19:54:01.331Z,101100.13
2022-09-16T19:56:33.327Z,101101.97
2022-09-16T19:59:01.548Z,101114.38
2022-09-16T20:01:31.125Z,101113.41
2022-09-16T20:04:04.886Z,101116.09
2022-09-16T20:06:37.022Z,101110.69
2022-09-16T20:09:06.711Z,101119.81
2022-09-16T20:11:36.200Z,101119.09
2022-09-16T20:14:11.573Z,101121.94
2022-09-16T20:16:38.957Z,101135.34
2022-09-16T20:19:08.473Z,101146.88
2022-09-16T20:21:35.631Z,101147.16
2022-09-16T20:24:06.267Z,101145.44
2022-09-16T20:26:34.164Z,101146.44
2022-09-16T20:29:01.366Z,101147.56
2022-09-16T20:31:31.325Z,101139.72
2022-09-16T20:34:00.681Z,101143.28
2022-09-16T20:36:30.645Z,101136.88
2022-09-16T20:38:59.660Z,101142.00
2022-09-16T20:41:28.867Z,101138.19
2022-09-16T20:43:57.484Z,101137.06
2022-09-16T20:46:29.241Z,101147.63
2022-09-16T20:48:57.516Z,101148.59
2022-09-16T20:51:26.747Z,101153.31
2022-09-16T20:54:06.265Z,101144.31
2022-09-16T20:56:38.279Z,101156.88
2022-09-16T20:59:09.838Z,101152.44
2022-09-16T21:01:38.207Z,101149.72
2022-09-16T21:04:12.214Z,101154.28
2022-09-16T21:06:38.855Z,101151.72
2022-09-16T21:09:13.573Z,101152.56
2022-09-16T21:11:44.359Z,101146.16
2022-09-16T21:14:15.909Z,101151.59
2022-09-16T21:16:45.247Z,101145.19
2022-09-16T21:19:13.380Z,101151.19
2022-09-16T21:21:43.640Z,101156.47
2022-09-16T21:24:10.485Z,101161.59
2022-09-16T21:26:38.433Z,101154.19
2022-09-16T21:29:11.309Z,101161.59
2022-09-16T21:31:40.786Z,101163.47
2022-09-16T21:34:15.331Z,101161.88
2022-09-16T21:36:44.233Z,101163.00
2022-09-16T21:39:11.853Z,101160.44
2022-09-16T21:41:38.530Z,101166.84
2022-09-16T21:44:10.140Z,101161.44
2022-09-16T21:46:42.863Z,101152.44
2022-09-16T21:49:16.899Z,101159.56
2022-09-16T21:51:43.482Z,101153.16
2022-09-16T21:54:19.667Z,101158.44
2022-09-16T21:56:46.849Z,101165.44
2022-09-16T21:59:13.310Z,101168.16
2022-09-16T22:01:39.840Z,101171.00
2022-09-16T22:04:11.726Z,101164.84
2022-09-16T22:06:38.255Z,101169.56
2022-09-16T22:09:07.857Z,101162.41
2022-09-16T22:11:36.129Z,101168.81
2022-09-16T22:14:07.864Z,101168.81
2022-09-16T22:16:37.336Z,101177.94
2022-09-16T22:19:11.227Z,101179.78
2022-09-16T22:21:40.628Z,101178.22
2022-09-16T22:24:09.543Z,101178.22
2022-09-16T22:26:36.485Z,101174.78
2022-09-16T22:29:03.681Z,101176.78
2022-09-16T22:31:32.183Z,101173.34
2022-09-16T22:34:01.757Z,101174.19
2022-09-16T22:36:31.011Z,101170.75
2022-09-16T22:39:05.029Z,101167.19
2022-09-16T22:41:33.109Z,101163.50
2022-09-16T22:44:04.159Z,101170.75
2022-09-16T22:46:34.395Z,101167.06
2022-09-16T22:49:00.925Z,101162.38
2022-09-16T22:51:28.957Z,101160.66
2022-09-16T22:53:56.732Z,101166.78
2022-09-16T22:56:29.570Z,101164.09
2022-09-16T22:58:57.341Z,101167.66
2022-09-16T23:01:31.755Z,101163.22
2022-09-16T23:04:01.713Z,101157.81
2022-09-16T23:06:30.131Z,101163.50
2022-09-16T23:08:57.208Z,101160.94
2022-09-16T23:11:27.246Z,101167.47
2022-09-16T23:13:58.049Z,101161.59
2022-09-16T23:16:27.628Z,101158.25
2022-09-16T23:18:56.818Z,101153.81
2022-09-16T23:21:24.607Z,101156.66
2022-09-16T23:23:57.381Z,101162.19
2022-09-16T23:26:29.790Z,101156.78
2022-09-16T23:28:58.002Z,101155.06
2022-09-16T23:31:27.854Z,101151.50
2022-09-16T23:33:59.261Z,101157.06
2022-09-16T23:36:27.419Z,101157.06
2022-09-16T23:38:55.340Z,101154.47
2022-09-16T23:41:27.226Z,101153.63
2022-09-16T23:43:56.429Z,101160.75
2022-09-16T23:46:28.674Z,101159.16
2022-09-16T23:48:55.678Z,101157.59
2022-09-16T23:51:28.058Z,101159.56
2022-09-16T23:53:58.906Z,101160.56
2022-09-16T23:56:26.343Z,101160.69
2022-09-16T23:58:53.158Z,101167.09
